sensor_id;sensor_type;location;lat;lon;timestamp;temperature;humidity
7588;DHT22;3835;48.850;8.938;2023-02-01T00:02:11;4.00;99.90
7588;DHT22;3835;48.850;8.938;2023-02-01T00:04:38;4.00;99.90
7588;DHT22;3835;48.850;8.938;2023-02-01T00:07:04;4.00;99.90
7588;DHT22;3835;48.850;8.938;2023-02-01T00:09:32;4.00;99.90
7588;DHT22;3835;48.850;8.938;2023-02-01T00:12:00;4.00;99.90
7588;DHT22;3835;48.850;8.938;2023-02-01T00:14:28;4.00;99.90
7588;DHT22;3835;48.850;8.938;2023-02-01T00:16:55;4.00;99.90
7588;DHT22;3835;48.850;8.938;2023-02-01T00:19:21;4.00;99.90
7588;DHT22;3835;48.850;8.938;2023-02-01T00:21:48;4.00;99.90
7588;DHT22;3835;48.850;8.938;2023-02-01T00:24:15;4.00;99.90
7588;DHT22;3835;48.850;8.938;2023-02-01T00:26:44;4.00;99.90
7588;DHT22;3835;48.850;8.938;2023-02-01T00:29:13;4.00;99.90
7588;DHT22;3835;48.850;8.938;2023-02-01T00:31:41;4.00;99.90
7588;DHT22;3835;48.850;8.938;2023-02-01T00:34:09;4.00;99.90
7588;DHT22;3835;48.850;8.938;2023-02-01T00:36:37;4.00;99.90
7588;DHT22;3835;48.850;8.938;2023-02-01T00:39:04;3.90;99.90
7588;DHT22;3835;48.850;8.938;2023-02-01T00:41:31;3.90;99.90
7588;DHT22;3835;48.850;8.938;2023-02-01T00:43:58;3.90;99.90
7588;DHT22;3835;48.850;8.938;2023-02-01T00:46:26;3.90;99.90
7588;DHT22;3835;48.850;8.938;2023-02-01T00:48:53;3.90;99.90
7588;DHT22;3835;48.850;8.938;2023-02-01T00:51:22;3.90;99.90
7588;DHT22;3835;48.850;8.938;2023-02-01T00:53:49;3.80;99.90
7588;DHT22;3835;48.850;8.938;2023-02-01T00:56:16;3.80;99.90
7588;DHT22;3835;48.850;8.938;2023-02-01T00:58:43;3.80;99.90
7588;DHT22;3835;48.850;8.938;2023-02-01T01:01:11;3.80;99.90
7588;DHT22;3835;48.850;8.938;2023-02-01T01:03:41;3.70;99.90
7588;DHT22;3835;48.850;8.938;2023-02-01T01:06:10;3.70;99.90
7588;DHT22;3835;48.850;8.938;2023-02-01T01:08:38;3.80;99.90
7588;DHT22;3835;48.850;8.938;2023-02-01T01:11:06;3.70;99.90
7588;DHT22;3835;48.850;8.938;2023-02-01T01:13:34;3.70;99.90
7588;DHT22;3835;48.850;8.938;2023-02-01T01:16:01;3.70;99.90
7588;DHT22;3835;48.850;8.938;2023-02-01T01:18:29;3.70;99.90
7588;DHT22;3835;48.850;8.938;2023-02-01T01:20:58;3.70;99.90
7588;DHT22;3835;48.850;8.938;2023-02-01T01:23:25;3.70;99.90
7588;DHT22;3835;48.850;8.938;2023-02-01T01:25:52;3.70;99.90
7588;DHT22;3835;48.850;8.938;2023-02-01T01:28:19;3.70;99.90
7588;DHT22;3835;48.850;8.938;2023-02-01T01:30:46;3.70;99.90
7588;DHT22;3835;48.850;8.938;2023-02-01T01:33:13;3.70;99.90
7588;DHT22;3835;48.850;8.938;2023-02-01T01:35:40;3.70;99.90
7588;DHT22;3835;48.850;8.938;2023-02-01T01:38:09;3.80;99.90
7588;DHT22;3835;48.850;8.938;2023-02-01T01:40:36;3.70;99.90
7588;DHT22;3835;48.850;8.938;2023-02-01T01:43:03;3.70;99.90
7588;DHT22;3835;48.850;8.938;2023-02-01T01:45:31;3.70;99.90
7588;DHT22;3835;48.850;8.938;2023-02-01T01:48:01;3.80;99.90
7588;DHT22;3835;48.850;8.938;2023-02-01T01:50:33;3.70;99.90
7588;DHT22;3835;48.850;8.938;2023-02-01T01:53:04;3.70;99.90
7588;DHT22;3835;48.850;8.938;2023-02-01T01:55:36;3.70;99.90
7588;DHT22;3835;48.850;8.938;2023-02-01T01:58:07;3.70;99.90
7588;DHT22;3835;48.850;8.938;2023-02-01T02:00:35;3.60;99.90
7588;DHT22;3835;48.850;8.938;2023-02-01T02:03:07;3.60;99.90
7588;DHT22;3835;48.850;8.938;2023-02-01T02:05:35;3.60;99.90
7588;DHT22;3835;48.850;8.938;2023-02-01T02:08:02;3.60;99.90
7588;DHT22;3835;48.850;8.938;2023-02-01T02:10:29;3.60;99.90
7588;DHT22;3835;48.850;8.938;2023-02-01T02:13:13;3.50;99.90
7588;DHT22;3835;48.850;8.938;2023-02-01T02:15:45;3.50;99.90
7588;DHT22;3835;48.850;8.938;2023-02-01T02:18:15;3.40;99.90
7588;DHT22;3835;48.850;8.938;2023-02-01T02:21:07;3.30;99.90
7588;DHT22;3835;48.850;8.938;2023-02-01T02:23:59;3.40;99.90
7588;DHT22;3835;48.850;8.938;2023-02-01T02:26:44;3.40;99.90
7588;DHT22;3835;48.850;8.938;2023-02-01T02:29:39;3.40;99.90
7588;DHT22;3835;48.850;8.938;2023-02-01T02:32:33;3.40;99.90
7588;DHT22;3835;48.850;8.938;2023-02-01T02:35:11;3.40;99.90
7588;DHT22;3835;48.850;8.938;2023-02-01T02:37:45;3.30;99.90
7588;DHT22;3835;48.850;8.938;2023-02-01T02:40:17;3.30;99.90
7588;DHT22;3835;48.850;8.938;2023-02-01T02:42:52;3.40;99.90
7588;DHT22;3835;48.850;8.938;2023-02-01T02:45:47;3.50;99.90
7588;DHT22;3835;48.850;8.938;2023-02-01T02:48:39;3.40;99.90
7588;DHT22;3835;48.850;8.938;2023-02-01T02:51:14;3.40;99.90
7588;DHT22;3835;48.850;8.938;2023-02-01T02:54:02;3.40;99.90
7588;DHT22;3835;48.850;8.938;2023-02-01T02:59:17;3.50;99.90
7588;DHT22;3835;48.850;8.938;2023-02-01T03:02:03;3.60;99.90
7588;DHT22;3835;48.850;8.938;2023-02-01T03:04:52;3.70;99.90
7588;DHT22;3835;48.850;8.938;2023-02-01T03:07:49;3.80;99.90
7588;DHT22;3835;48.850;8.938;2023-02-01T03:10:24;3.90;99.90
7588;DHT22;3835;48.850;8.938;2023-02-01T03:12:54;4.00;99.90
7588;DHT22;3835;48.850;8.938;2023-02-01T03:15:23;4.00;99.90
7588;DHT22;3835;48.850;8.938;2023-02-01T03:17:55;4.00;99.90
7588;DHT22;3835;48.850;8.938;2023-02-01T03:20:25;4.00;99.90
7588;DHT22;3835;48.850;8.938;2023-02-01T03:22:55;4.00;99.90
7588;DHT22;3835;48.850;8.938;2023-02-01T03:25:27;4.00;99.90
7588;DHT22;3835;48.850;8.938;2023-02-01T03:27:57;4.00;99.90
7588;DHT22;3835;48.850;8.938;2023-02-01T03:30:28;4.00;99.90
7588;DHT22;3835;48.850;8.938;2023-02-01T03:32:58;4.00;99.90
7588;DHT22;3835;48.850;8.938;2023-02-01T03:35:28;3.90;99.90
7588;DHT22;3835;48.850;8.938;2023-02-01T03:38:06;4.00;99.90
7588;DHT22;3835;48.850;8.938;2023-02-01T03:40:36;4.00;99.90
7588;DHT22;3835;48.850;8.938;2023-02-01T03:43:05;4.10;99.90
7588;DHT22;3835;48.850;8.938;2023-02-01T03:45:35;4.10;99.90
7588;DHT22;3835;48.850;8.938;2023-02-01T03:48:05;4.10;99.90
7588;DHT22;3835;48.850;8.938;2023-02-01T03:50:34;4.10;99.90
7588;DHT22;3835;48.850;8.938;2023-02-01T03:53:06;4.10;99.90
7588;DHT22;3835;48.850;8.938;2023-02-01T03:55:35;4.10;99.90
7588;DHT22;3835;48.850;8.938;2023-02-01T03:58:06;4.10;99.90
7588;DHT22;3835;48.850;8.938;2023-02-01T04:00:34;4.10;99.90
7588;DHT22;3835;48.850;8.938;2023-02-01T04:03:01;4.10;99.90
7588;DHT22;3835;48.850;8.938;2023-02-01T04:05:29;4.10;99.90
7588;DHT22;3835;48.850;8.938;2023-02-01T04:07:56;4.10;99.90
7588;DHT22;3835;48.850;8.938;2023-02-01T04:10:24;4.10;99.90
7588;DHT22;3835;48.850;8.938;2023-02-01T04:12:51;4.10;99.90
7588;DHT22;3835;48.850;8.938;2023-02-01T04:15:18;4.10;99.90
7588;DHT22;3835;48.850;8.938;2023-02-01T04:17:44;4.20;99.90
7588;DHT22;3835;48.850;8.938;2023-02-01T04:20:11;4.20;99.90
7588;DHT22;3835;48.850;8.938;2023-02-01T04:22:38;4.20;99.90
7588;DHT22;3835;48.850;8.938;2023-02-01T04:25:06;4.20;99.90
7588;DHT22;3835;48.850;8.938;2023-02-01T04:27:35;4.20;99.90
7588;DHT22;3835;48.850;8.938;2023-02-01T04:30:01;4.20;99.90
7588;DHT22;3835;48.850;8.938;2023-02-01T04:32:28;4.20;99.90
7588;DHT22;3835;48.850;8.938;2023-02-01T04:34:55;4.20;99.90
7588;DHT22;3835;48.850;8.938;2023-02-01T04:37:22;4.20;99.90
7588;DHT22;3835;48.850;8.938;2023-02-01T04:39:48;4.30;99.90
7588;DHT22;3835;48.850;8.938;2023-02-01T04:42:15;4.30;99.90
7588;DHT22;3835;48.850;8.938;2023-02-01T04:44:43;4.30;99.90
7588;DHT22;3835;48.850;8.938;2023-02-01T04:47:10;4.40;99.90
7588;DHT22;3835;48.850;8.938;2023-02-01T04:49:37;4.40;99.90
7588;DHT22;3835;48.850;8.938;2023-02-01T04:52:04;4.30;99.90
7588;DHT22;3835;48.850;8.938;2023-02-01T04:54:30;4.30;99.90
7588;DHT22;3835;48.850;8.938;2023-02-01T04:56:57;4.20;99.90
7588;DHT22;3835;48.850;8.938;2023-02-01T04:59:24;4.20;99.90
7588;DHT22;3835;48.850;8.938;2023-02-01T05:01:52;4.30;99.90
7588;DHT22;3835;48.850;8.938;2023-02-01T05:04:19;4.20;99.90
7588;DHT22;3835;48.850;8.938;2023-02-01T05:06:46;4.30;99.90
7588;DHT22;3835;48.850;8.938;2023-02-01T05:09:13;4.30;99.90
7588;DHT22;3835;48.850;8.938;2023-02-01T05:11:40;4.30;99.90
7588;DHT22;3835;48.850;8.938;2023-02-01T05:14:24;4.40;99.90
7588;DHT22;3835;48.850;8.938;2023-02-01T05:16:52;4.40;99.90
7588;DHT22;3835;48.850;8.938;2023-02-01T05:19:19;4.40;99.90
7588;DHT22;3835;48.850;8.938;2023-02-01T05:21:45;4.40;99.90
7588;DHT22;3835;48.850;8.938;2023-02-01T05:24:12;4.30;99.90
7588;DHT22;3835;48.850;8.938;2023-02-01T05:26:42;4.40;99.90
7588;DHT22;3835;48.850;8.938;2023-02-01T05:29:09;4.30;99.90
7588;DHT22;3835;48.850;8.938;2023-02-01T05:31:36;4.30;99.90
7588;DHT22;3835;48.850;8.938;2023-02-01T05:34:05;4.30;99.90
7588;DHT22;3835;48.850;8.938;2023-02-01T05:36:32;4.40;99.90
7588;DHT22;3835;48.850;8.938;2023-02-01T05:38:59;4.30;99.90
7588;DHT22;3835;48.850;8.938;2023-02-01T05:41:25;4.30;99.90
7588;DHT22;3835;48.850;8.938;2023-02-01T05:43:52;4.30;99.90
7588;DHT22;3835;48.850;8.938;2023-02-01T05:46:19;4.30;99.90
7588;DHT22;3835;48.850;8.938;2023-02-01T05:48:46;4.20;99.90
7588;DHT22;3835;48.850;8.938;2023-02-01T05:51:14;4.10;99.90
7588;DHT22;3835;48.850;8.938;2023-02-01T05:53:41;4.00;99.90
7588;DHT22;3835;48.850;8.938;2023-02-01T05:56:08;4.00;99.90
7588;DHT22;3835;48.850;8.938;2023-02-01T05:58:34;3.90;99.90
7588;DHT22;3835;48.850;8.938;2023-02-01T06:01:02;4.00;99.90
7588;DHT22;3835;48.850;8.938;2023-02-01T06:03:29;4.00;99.90
7588;DHT22;3835;48.850;8.938;2023-02-01T06:05:56;4.00;99.90
7588;DHT22;3835;48.850;8.938;2023-02-01T06:08:24;4.00;99.90
7588;DHT22;3835;48.850;8.938;2023-02-01T06:10:56;4.00;99.90
7588;DHT22;3835;48.850;8.938;2023-02-01T06:13:23;4.00;99.90
7588;DHT22;3835;48.850;8.938;2023-02-01T06:15:50;4.10;99.90
7588;DHT22;3835;48.850;8.938;2023-02-01T06:18:17;4.10;99.90
7588;DHT22;3835;48.850;8.938;2023-02-01T06:20:44;4.10;99.90
7588;DHT22;3835;48.850;8.938;2023-02-01T06:23:11;4.20;99.90
7588;DHT22;3835;48.850;8.938;2023-02-01T06:25:39;4.20;99.90
7588;DHT22;3835;48.850;8.938;2023-02-01T06:28:05;4.20;99.90
7588;DHT22;3835;48.850;8.938;2023-02-01T06:30:33;4.20;99.90
7588;DHT22;3835;48.850;8.938;2023-02-01T06:33:00;4.20;99.90
7588;DHT22;3835;48.850;8.938;2023-02-01T06:35:27;4.20;99.90
7588;DHT22;3835;48.850;8.938;2023-02-01T06:37:53;4.20;99.90
7588;DHT22;3835;48.850;8.938;2023-02-01T06:40:20;4.30;99.90
7588;DHT22;3835;48.850;8.938;2023-02-01T06:42:49;4.20;99.90
7588;DHT22;3835;48.850;8.938;2023-02-01T06:45:16;4.30;99.90
7588;DHT22;3835;48.850;8.938;2023-02-01T06:47:43;4.20;99.90
7588;DHT22;3835;48.850;8.938;2023-02-01T06:50:10;4.20;99.90
7588;DHT22;3835;48.850;8.938;2023-02-01T06:52:37;4.20;99.90
7588;DHT22;3835;48.850;8.938;2023-02-01T06:55:04;4.30;99.90
7588;DHT22;3835;48.850;8.938;2023-02-01T06:57:31;4.30;99.90
7588;DHT22;3835;48.850;8.938;2023-02-01T07:00:01;4.30;99.90
7588;DHT22;3835;48.850;8.938;2023-02-01T07:02:28;4.30;99.90
7588;DHT22;3835;48.850;8.938;2023-02-01T07:04:55;4.30;99.90
7588;DHT22;3835;48.850;8.938;2023-02-01T07:07:21;4.40;99.90
7588;DHT22;3835;48.850;8.938;2023-02-01T07:09:48;4.40;99.90
7588;DHT22;3835;48.850;8.938;2023-02-01T07:12:16;4.40;99.90
7588;DHT22;3835;48.850;8.938;2023-02-01T07:14:43;4.40;99.90
7588;DHT22;3835;48.850;8.938;2023-02-01T07:17:11;4.40;99.90
7588;DHT22;3835;48.850;8.938;2023-02-01T07:19:38;4.40;99.90
7588;DHT22;3835;48.850;8.938;2023-02-01T07:22:05;4.50;99.90
7588;DHT22;3835;48.850;8.938;2023-02-01T07:24:33;4.50;99.90
7588;DHT22;3835;48.850;8.938;2023-02-01T07:27:00;4.50;99.90
7588;DHT22;3835;48.850;8.938;2023-02-01T07:29:27;4.50;99.90
7588;DHT22;3835;48.850;8.938;2023-02-01T07:31:53;4.50;99.90
7588;DHT22;3835;48.850;8.938;2023-02-01T07:34:21;4.50;99.90
7588;DHT22;3835;48.850;8.938;2023-02-01T07:36:48;4.50;99.90
7588;DHT22;3835;48.850;8.938;2023-02-01T07:39:15;4.60;99.90
7588;DHT22;3835;48.850;8.938;2023-02-01T07:41:42;4.60;99.90
7588;DHT22;3835;48.850;8.938;2023-02-01T07:44:09;4.70;99.90
7588;DHT22;3835;48.850;8.938;2023-02-01T07:46:36;4.70;99.90
7588;DHT22;3835;48.850;8.938;2023-02-01T07:49:04;4.70;99.90
7588;DHT22;3835;48.850;8.938;2023-02-01T07:51:32;4.70;99.90
7588;DHT22;3835;48.850;8.938;2023-02-01T07:53:59;4.70;99.90
7588;DHT22;3835;48.850;8.938;2023-02-01T07:56:26;4.80;99.90
7588;DHT22;3835;48.850;8.938;2023-02-01T07:58:54;4.80;99.90
7588;DHT22;3835;48.850;8.938;2023-02-01T08:01:22;4.80;99.90
7588;DHT22;3835;48.850;8.938;2023-02-01T08:03:51;4.80;99.90
7588;DHT22;3835;48.850;8.938;2023-02-01T08:06:19;4.70;99.90
7588;DHT22;3835;48.850;8.938;2023-02-01T08:08:47;4.70;99.90
7588;DHT22;3835;48.850;8.938;2023-02-01T08:11:15;4.60;99.90
7588;DHT22;3835;48.850;8.938;2023-02-01T08:13:42;4.70;99.90
7588;DHT22;3835;48.850;8.938;2023-02-01T08:16:10;4.70;99.90
7588;DHT22;3835;48.850;8.938;2023-02-01T08:18:39;4.80;99.90
7588;DHT22;3835;48.850;8.938;2023-02-01T08:21:07;4.80;99.90
7588;DHT22;3835;48.850;8.938;2023-02-01T08:23:35;4.80;99.90
7588;DHT22;3835;48.850;8.938;2023-02-01T08:26:08;4.90;99.90
7588;DHT22;3835;48.850;8.938;2023-02-01T08:28:36;5.00;99.90
7588;DHT22;3835;48.850;8.938;2023-02-01T08:31:07;5.10;99.90
7588;DHT22;3835;48.850;8.938;2023-02-01T08:33:35;5.20;99.90
7588;DHT22;3835;48.850;8.938;2023-02-01T08:36:03;5.20;99.90
7588;DHT22;3835;48.850;8.938;2023-02-01T08:38:30;5.20;99.90
7588;DHT22;3835;48.850;8.938;2023-02-01T08:40:57;5.20;99.90
7588;DHT22;3835;48.850;8.938;2023-02-01T08:43:31;5.30;99.90
7588;DHT22;3835;48.850;8.938;2023-02-01T08:45:58;5.20;99.90
7588;DHT22;3835;48.850;8.938;2023-02-01T08:48:24;5.20;99.90
7588;DHT22;3835;48.850;8.938;2023-02-01T08:50:51;5.20;99.90
7588;DHT22;3835;48.850;8.938;2023-02-01T08:53:18;5.30;99.90
7588;DHT22;3835;48.850;8.938;2023-02-01T08:55:45;5.30;99.90
7588;DHT22;3835;48.850;8.938;2023-02-01T08:58:12;5.20;99.90
7588;DHT22;3835;48.850;8.938;2023-02-01T09:00:40;5.10;99.90
7588;DHT22;3835;48.850;8.938;2023-02-01T09:03:09;5.00;99.90
7588;DHT22;3835;48.850;8.938;2023-02-01T09:05:36;5.00;99.90
7588;DHT22;3835;48.850;8.938;2023-02-01T09:08:04;5.00;99.90
7588;DHT22;3835;48.850;8.938;2023-02-01T09:10:31;5.00;99.90
7588;DHT22;3835;48.850;8.938;2023-02-01T09:12:58;5.00;99.90
7588;DHT22;3835;48.850;8.938;2023-02-01T09:15:24;5.10;99.90
7588;DHT22;3835;48.850;8.938;2023-02-01T09:17:53;5.20;99.90
7588;DHT22;3835;48.850;8.938;2023-02-01T09:20:19;5.30;99.90
7588;DHT22;3835;48.850;8.938;2023-02-01T09:22:49;5.40;99.90
7588;DHT22;3835;48.850;8.938;2023-02-01T09:25:16;5.50;99.90
7588;DHT22;3835;48.850;8.938;2023-02-01T09:27:43;5.50;99.90
7588;DHT22;3835;48.850;8.938;2023-02-01T09:30:11;5.50;99.90
7588;DHT22;3835;48.850;8.938;2023-02-01T09:32:38;5.60;99.90
7588;DHT22;3835;48.850;8.938;2023-02-01T09:35:06;5.70;99.90
7588;DHT22;3835;48.850;8.938;2023-02-01T09:37:33;5.70;99.90
7588;DHT22;3835;48.850;8.938;2023-02-01T09:40:01;5.80;99.90
7588;DHT22;3835;48.850;8.938;2023-02-01T09:42:47;5.70;99.90
7588;DHT22;3835;48.850;8.938;2023-02-01T09:45:20;5.70;99.90
7588;DHT22;3835;48.850;8.938;2023-02-01T09:47:53;5.60;99.90
7588;DHT22;3835;48.850;8.938;2023-02-01T09:50:28;5.50;99.90
7588;DHT22;3835;48.850;8.938;2023-02-01T09:52:57;5.50;99.90
7588;DHT22;3835;48.850;8.938;2023-02-01T09:55:31;5.50;99.90
7588;DHT22;3835;48.850;8.938;2023-02-01T09:58:02;5.40;99.90
7588;DHT22;3835;48.850;8.938;2023-02-01T10:00:33;5.30;99.90
7588;DHT22;3835;48.850;8.938;2023-02-01T10:03:00;5.30;99.90
7588;DHT22;3835;48.850;8.938;2023-02-01T10:05:43;5.30;99.90
7588;DHT22;3835;48.850;8.938;2023-02-01T10:08:19;5.30;99.90
7588;DHT22;3835;48.850;8.938;2023-02-01T10:10:49;5.50;99.90
7588;DHT22;3835;48.850;8.938;2023-02-01T10:13:29;5.50;99.90
7588;DHT22;3835;48.850;8.938;2023-02-01T10:16:07;5.70;99.90
7588;DHT22;3835;48.850;8.938;2023-02-01T10:18:47;5.70;99.90
7588;DHT22;3835;48.850;8.938;2023-02-01T10:21:28;5.80;99.90
7588;DHT22;3835;48.850;8.938;2023-02-01T10:24:28;5.80;99.90
7588;DHT22;3835;48.850;8.938;2023-02-01T10:27:02;5.90;99.90
7588;DHT22;3835;48.850;8.938;2023-02-01T10:29:34;5.90;99.90
7588;DHT22;3835;48.850;8.938;2023-02-01T10:32:02;5.70;99.90
7588;DHT22;3835;48.850;8.938;2023-02-01T10:34:31;5.60;99.90
7588;DHT22;3835;48.850;8.938;2023-02-01T10:37:09;5.50;99.90
7588;DHT22;3835;48.850;8.938;2023-02-01T10:39:44;5.60;99.90
7588;DHT22;3835;48.850;8.938;2023-02-01T10:42:11;5.60;99.90
7588;DHT22;3835;48.850;8.938;2023-02-01T10:44:42;5.50;99.90
7588;DHT22;3835;48.850;8.938;2023-02-01T10:47:11;5.60;99.90
7588;DHT22;3835;48.850;8.938;2023-02-01T10:49:40;5.60;99.90
7588;DHT22;3835;48.850;8.938;2023-02-01T10:52:15;5.50;99.90
7588;DHT22;3835;48.850;8.938;2023-02-01T10:54:43;5.60;99.90
7588;DHT22;3835;48.850;8.938;2023-02-01T10:57:21;5.80;99.90
7588;DHT22;3835;48.850;8.938;2023-02-01T10:59:49;5.80;99.90
7588;DHT22;3835;48.850;8.938;2023-02-01T11:02:20;5.70;99.90
7588;DHT22;3835;48.850;8.938;2023-02-01T11:04:58;5.90;99.90
7588;DHT22;3835;48.850;8.938;2023-02-01T11:07:28;5.90;99.90
7588;DHT22;3835;48.850;8.938;2023-02-01T11:09:56;5.90;99.90
7588;DHT22;3835;48.850;8.938;2023-02-01T11:12:29;5.70;99.90
7588;DHT22;3835;48.850;8.938;2023-02-01T11:15:14;5.80;99.90
7588;DHT22;3835;48.850;8.938;2023-02-01T11:17:45;5.90;99.90
7588;DHT22;3835;48.850;8.938;2023-02-01T11:20:16;6.10;99.90
7588;DHT22;3835;48.850;8.938;2023-02-01T11:22:49;6.20;99.90
7588;DHT22;3835;48.850;8.938;2023-02-01T11:25:19;6.20;99.90
7588;DHT22;3835;48.850;8.938;2023-02-01T11:27:47;5.90;99.90
7588;DHT22;3835;48.850;8.938;2023-02-01T11:30:17;6.00;99.90
7588;DHT22;3835;48.850;8.938;2023-02-01T11:32:45;6.10;99.90
7588;DHT22;3835;48.850;8.938;2023-02-01T11:35:18;6.00;99.90
7588;DHT22;3835;48.850;8.938;2023-02-01T11:37:50;6.00;99.90
7588;DHT22;3835;48.850;8.938;2023-02-01T11:40:27;6.10;99.90
7588;DHT22;3835;48.850;8.938;2023-02-01T11:42:56;6.20;99.90
7588;DHT22;3835;48.850;8.938;2023-02-01T11:45:27;6.30;99.90
7588;DHT22;3835;48.850;8.938;2023-02-01T11:47:56;6.60;99.90
7588;DHT22;3835;48.850;8.938;2023-02-01T11:50:30;6.60;99.90
7588;DHT22;3835;48.850;8.938;2023-02-01T11:53:24;6.80;99.90
7588;DHT22;3835;48.850;8.938;2023-02-01T11:55:56;6.50;99.90
7588;DHT22;3835;48.850;8.938;2023-02-01T11:59:01;6.40;99.90
7588;DHT22;3835;48.850;8.938;2023-02-01T12:01:49;6.20;99.90
7588;DHT22;3835;48.850;8.938;2023-02-01T12:04:45;6.10;99.90
7588;DHT22;3835;48.850;8.938;2023-02-01T12:07:20;6.00;99.90
7588;DHT22;3835;48.850;8.938;2023-02-01T12:10:15;6.00;99.90
7588;DHT22;3835;48.850;8.938;2023-02-01T12:12:47;5.90;99.90
7588;DHT22;3835;48.850;8.938;2023-02-01T12:15:27;5.90;99.90
7588;DHT22;3835;48.850;8.938;2023-02-01T12:18:17;6.20;99.90
7588;DHT22;3835;48.850;8.938;2023-02-01T12:21:03;6.00;99.90
7588;DHT22;3835;48.850;8.938;2023-02-01T12:24:06;5.90;99.90
7588;DHT22;3835;48.850;8.938;2023-02-01T12:26:56;5.80;99.90
7588;DHT22;3835;48.850;8.938;2023-02-01T12:29:53;5.70;99.90
7588;DHT22;3835;48.850;8.938;2023-02-01T12:32:44;5.60;99.90
7588;DHT22;3835;48.850;8.938;2023-02-01T12:35:42;5.50;99.90
7588;DHT22;3835;48.850;8.938;2023-02-01T12:38:25;5.50;99.90
7588;DHT22;3835;48.850;8.938;2023-02-01T12:41:05;5.70;99.90
7588;DHT22;3835;48.850;8.938;2023-02-01T12:43:45;5.60;99.90
7588;DHT22;3835;48.850;8.938;2023-02-01T12:46:16;5.60;99.90
7588;DHT22;3835;48.850;8.938;2023-02-01T12:48:54;5.40;99.90
7588;DHT22;3835;48.850;8.938;2023-02-01T12:51:26;5.30;99.90
7588;DHT22;3835;48.850;8.938;2023-02-01T12:54:03;5.30;99.90
7588;DHT22;3835;48.850;8.938;2023-02-01T12:56:41;5.20;99.90
7588;DHT22;3835;48.850;8.938;2023-02-01T12:59:19;5.10;99.90
7588;DHT22;3835;48.850;8.938;2023-02-01T13:01:52;5.10;99.90
7588;DHT22;3835;48.850;8.938;2023-02-01T13:04:26;5.20;99.90
7588;DHT22;3835;48.850;8.938;2023-02-01T13:07:02;5.30;99.90
7588;DHT22;3835;48.850;8.938;2023-02-01T13:09:36;5.40;99.90
7588;DHT22;3835;48.850;8.938;2023-02-01T13:12:08;5.50;99.90
7588;DHT22;3835;48.850;8.938;2023-02-01T13:14:43;5.50;99.90
7588;DHT22;3835;48.850;8.938;2023-02-01T13:17:15;5.40;99.90
7588;DHT22;3835;48.850;8.938;2023-02-01T13:19:45;5.40;99.90
7588;DHT22;3835;48.850;8.938;2023-02-01T13:22:17;5.40;99.90
7588;DHT22;3835;48.850;8.938;2023-02-01T13:24:47;5.40;99.90
7588;DHT22;3835;48.850;8.938;2023-02-01T13:27:17;5.50;99.90
7588;DHT22;3835;48.850;8.938;2023-02-01T13:29:53;5.50;99.90
7588;DHT22;3835;48.850;8.938;2023-02-01T13:32:43;5.60;99.90
7588;DHT22;3835;48.850;8.938;2023-02-01T13:35:45;5.70;99.90
7588;DHT22;3835;48.850;8.938;2023-02-01T13:38:36;5.50;99.90
7588;DHT22;3835;48.850;8.938;2023-02-01T13:41:18;5.60;99.90
7588;DHT22;3835;48.850;8.938;2023-02-01T13:43:52;5.50;99.90
7588;DHT22;3835;48.850;8.938;2023-02-01T13:46:22;5.40;99.90
7588;DHT22;3835;48.850;8.938;2023-02-01T13:48:55;5.40;99.90
7588;DHT22;3835;48.850;8.938;2023-02-01T13:51:41;5.40;99.90
7588;DHT22;3835;48.850;8.938;2023-02-01T13:54:28;5.40;99.90
7588;DHT22;3835;48.850;8.938;2023-02-01T13:56:56;5.40;99.90
7588;DHT22;3835;48.850;8.938;2023-02-01T14:00:06;5.30;99.90
7588;DHT22;3835;48.850;8.938;2023-02-01T14:09:15;5.30;99.90
7588;DHT22;3835;48.850;8.938;2023-02-01T14:11:47;5.30;99.90
7588;DHT22;3835;48.850;8.938;2023-02-01T14:14:47;5.40;99.90
7588;DHT22;3835;48.850;8.938;2023-02-01T14:17:39;5.40;99.90
7588;DHT22;3835;48.850;8.938;2023-02-01T14:23:24;5.30;99.90
7588;DHT22;3835;48.850;8.938;2023-02-01T14:26:05;5.30;99.90
7588;DHT22;3835;48.850;8.938;2023-02-01T14:28:38;5.30;99.90
7588;DHT22;3835;48.850;8.938;2023-02-01T14:31:31;5.20;99.90
7588;DHT22;3835;48.850;8.938;2023-02-01T14:34:00;5.10;99.90
7588;DHT22;3835;48.850;8.938;2023-02-01T14:36:41;5.10;99.90
7588;DHT22;3835;48.850;8.938;2023-02-01T14:39:29;5.10;99.90
7588;DHT22;3835;48.850;8.938;2023-02-01T14:42:00;5.10;99.90
7588;DHT22;3835;48.850;8.938;2023-02-01T14:44:30;5.10;99.90
7588;DHT22;3835;48.850;8.938;2023-02-01T14:47:11;5.10;99.90
7588;DHT22;3835;48.850;8.938;2023-02-01T14:52:49;5.20;99.90
7588;DHT22;3835;48.850;8.938;2023-02-01T14:55:27;5.30;99.90
7588;DHT22;3835;48.850;8.938;2023-02-01T14:57:59;5.30;99.90
7588;DHT22;3835;48.850;8.938;2023-02-01T15:00:30;5.40;99.90
7588;DHT22;3835;48.850;8.938;2023-02-01T15:03:22;5.40;99.90
7588;DHT22;3835;48.850;8.938;2023-02-01T15:05:56;5.30;99.90
7588;DHT22;3835;48.850;8.938;2023-02-01T15:08:27;5.30;99.90
7588;DHT22;3835;48.850;8.938;2023-02-01T15:11:00;5.40;99.90
7588;DHT22;3835;48.850;8.938;2023-02-01T15:13:29;5.40;99.90
7588;DHT22;3835;48.850;8.938;2023-02-01T15:16:04;5.40;99.90
7588;DHT22;3835;48.850;8.938;2023-02-01T15:18:34;5.40;99.90
7588;DHT22;3835;48.850;8.938;2023-02-01T15:21:04;5.40;99.90
7588;DHT22;3835;48.850;8.938;2023-02-01T15:23:32;5.50;99.90
7588;DHT22;3835;48.850;8.938;2023-02-01T15:26:02;5.40;99.90
7588;DHT22;3835;48.850;8.938;2023-02-01T15:28:33;5.30;99.90
7588;DHT22;3835;48.850;8.938;2023-02-01T15:31:04;5.30;99.90
7588;DHT22;3835;48.850;8.938;2023-02-01T15:33:32;5.20;99.90
7588;DHT22;3835;48.850;8.938;2023-02-01T15:36:11;5.20;99.90
7588;DHT22;3835;48.850;8.938;2023-02-01T15:38:47;5.20;99.90
7588;DHT22;3835;48.850;8.938;2023-02-01T15:41:18;5.20;99.90
7588;DHT22;3835;48.850;8.938;2023-02-01T15:44:02;5.20;99.90
7588;DHT22;3835;48.850;8.938;2023-02-01T15:46:33;5.10;99.90
7588;DHT22;3835;48.850;8.938;2023-02-01T15:49:03;5.10;99.90
7588;DHT22;3835;48.850;8.938;2023-02-01T15:51:32;5.00;99.90
7588;DHT22;3835;48.850;8.938;2023-02-01T15:54:05;4.90;99.90
7588;DHT22;3835;48.850;8.938;2023-02-01T15:56:51;4.80;99.90
7588;DHT22;3835;48.850;8.938;2023-02-01T15:59:23;4.80;99.90
7588;DHT22;3835;48.850;8.938;2023-02-01T16:01:52;4.90;99.90
7588;DHT22;3835;48.850;8.938;2023-02-01T16:04:21;4.80;99.90
7588;DHT22;3835;48.850;8.938;2023-02-01T16:06:51;4.90;99.90
7588;DHT22;3835;48.850;8.938;2023-02-01T16:09:21;4.90;99.90
7588;DHT22;3835;48.850;8.938;2023-02-01T16:11:54;5.00;99.90
7588;DHT22;3835;48.850;8.938;2023-02-01T16:14:23;5.00;99.90
7588;DHT22;3835;48.850;8.938;2023-02-01T16:16:52;5.00;99.90
7588;DHT22;3835;48.850;8.938;2023-02-01T16:19:20;5.10;99.90
7588;DHT22;3835;48.850;8.938;2023-02-01T16:21:54;5.00;99.90
7588;DHT22;3835;48.850;8.938;2023-02-01T16:24:21;5.00;99.90
7588;DHT22;3835;48.850;8.938;2023-02-01T16:26:53;5.00;99.90
7588;DHT22;3835;48.850;8.938;2023-02-01T16:29:20;5.00;99.90
7588;DHT22;3835;48.850;8.938;2023-02-01T16:31:49;5.00;99.90
7588;DHT22;3835;48.850;8.938;2023-02-01T16:34:18;5.00;99.90
7588;DHT22;3835;48.850;8.938;2023-02-01T16:36:48;5.00;99.90
7588;DHT22;3835;48.850;8.938;2023-02-01T16:39:18;4.90;99.90
7588;DHT22;3835;48.850;8.938;2023-02-01T16:41:47;4.90;99.90
7588;DHT22;3835;48.850;8.938;2023-02-01T16:44:16;4.90;99.90
7588;DHT22;3835;48.850;8.938;2023-02-01T16:46:45;4.80;99.90
7588;DHT22;3835;48.850;8.938;2023-02-01T16:49:18;4.70;99.90
7588;DHT22;3835;48.850;8.938;2023-02-01T16:51:48;4.70;99.90
7588;DHT22;3835;48.850;8.938;2023-02-01T16:54:16;4.70;99.90
7588;DHT22;3835;48.850;8.938;2023-02-01T16:56:45;4.70;99.90
7588;DHT22;3835;48.850;8.938;2023-02-01T16:59:13;4.70;99.90
7588;DHT22;3835;48.850;8.938;2023-02-01T17:01:42;4.70;99.90
7588;DHT22;3835;48.850;8.938;2023-02-01T17:04:10;4.60;99.90